Polktown, Pennsylvania
Current Conditions -  °F | °C
As of 9:53 PM on Friday 19 Dec 2014 (Local Time) from KRYT Reporting Station
Clear Clear  
Wind Chill: 30°   Ceiling: Unl
Heat Index: 30°   Visibility: 10mi
Dew Point: 19°   Wind: 0mph
Humidity: 64%   Direction: NA
Pressure: 30.2"   Gusts: NA
Location:  39.7777°N, 77.5693°W
Report Text: KRYT 200253Z AUTO 00000KT 10SM CLR M01/M07 A3020 RMK AO2 SLP242 T10111072 51016 $
Loading
Personal Weather Stations






























Interactive Weather Map New forecast layout! Learn more

10-Day Weather Forecast

Advertisements
Track Severe Weather on mobile